sensor_id;sensor_type;location;lat;lon;timestamp;P1;durP1;ratioP1;P2;durP2;ratioP2
72791;SDS011;60907;53.268;8.764;2023-05-10T00:00:31;11.18;;;7.30;;
72791;SDS011;60907;53.268;8.764;2023-05-10T00:02:57;9.90;;;6.18;;
72791;SDS011;60907;53.268;8.764;2023-05-10T00:05:22;10.55;;;6.90;;
72791;SDS011;60907;53.268;8.764;2023-05-10T00:07:48;8.00;;;6.27;;
72791;SDS011;60907;53.268;8.764;2023-05-10T00:10:13;9.18;;;6.25;;
72791;SDS011;60907;53.268;8.764;2023-05-10T00:12:38;11.70;;;6.05;;
72791;SDS011;60907;53.268;8.764;2023-05-10T00:15:04;13.45;;;6.32;;
72791;SDS011;60907;53.268;8.764;2023-05-10T00:17:30;7.43;;;4.82;;
72791;SDS011;60907;53.268;8.764;2023-05-10T00:19:56;8.10;;;4.43;;
72791;SDS011;60907;53.268;8.764;2023-05-10T00:22:21;5.20;;;3.60;;
72791;SDS011;60907;53.268;8.764;2023-05-10T00:24:46;4.40;;;3.30;;
72791;SDS011;60907;53.268;8.764;2023-05-10T00:27:12;4.85;;;3.58;;
72791;SDS011;60907;53.268;8.764;2023-05-10T00:29:37;6.40;;;3.40;;
72791;SDS011;60907;53.268;8.764;2023-05-10T00:32:03;5.18;;;3.28;;
72791;SDS011;60907;53.268;8.764;2023-05-10T00:34:28;4.82;;;3.03;;
72791;SDS011;60907;53.268;8.764;2023-05-10T00:36:54;3.88;;;2.78;;
72791;SDS011;60907;53.268;8.764;2023-05-10T00:39:19;4.80;;;3.00;;
72791;SDS011;60907;53.268;8.764;2023-05-10T00:41:45;3.80;;;2.80;;
72791;SDS011;60907;53.268;8.764;2023-05-10T00:44:10;3.80;;;2.45;;
72791;SDS011;60907;53.268;8.764;2023-05-10T00:46:36;4.57;;;2.42;;
72791;SDS011;60907;53.268;8.764;2023-05-10T00:49:01;3.53;;;2.63;;
72791;SDS011;60907;53.268;8.764;2023-05-10T00:51:27;3.60;;;2.45;;
72791;SDS011;60907;53.268;8.764;2023-05-10T00:53:52;3.17;;;2.53;;
72791;SDS011;60907;53.268;8.764;2023-05-10T00:56:18;3.08;;;2.22;;
72791;SDS011;60907;53.268;8.764;2023-05-10T00:58:47;4.47;;;2.55;;
72791;SDS011;60907;53.268;8.764;2023-05-10T01:01:13;3.78;;;2.50;;
72791;SDS011;60907;53.268;8.764;2023-05-10T01:03:38;3.35;;;2.20;;
72791;SDS011;60907;53.268;8.764;2023-05-10T01:06:04;5.20;;;1.95;;
72791;SDS011;60907;53.268;8.764;2023-05-10T01:08:30;4.72;;;2.15;;
72791;SDS011;60907;53.268;8.764;2023-05-10T01:10:55;3.15;;;2.50;;
72791;SDS011;60907;53.268;8.764;2023-05-10T01:13:43;2.53;;;1.92;;
72791;SDS011;60907;53.268;8.764;2023-05-10T01:16:07;3.55;;;2.40;;
72791;SDS011;60907;53.268;8.764;2023-05-10T01:18:33;6.07;;;2.53;;
72791;SDS011;60907;53.268;8.764;2023-05-10T01:21:07;3.17;;;2.13;;
72791;SDS011;60907;53.268;8.764;2023-05-10T01:23:41;4.18;;;2.58;;
72791;SDS011;60907;53.268;8.764;2023-05-10T01:34:35;6.53;;;1.95;;
72791;SDS011;60907;53.268;8.764;2023-05-10T01:40:08;2.58;;;1.58;;
72791;SDS011;60907;53.268;8.764;2023-05-10T01:42:53;2.95;;;2.05;;
72791;SDS011;60907;53.268;8.764;2023-05-10T01:45:32;2.88;;;1.73;;
72791;SDS011;60907;53.268;8.764;2023-05-10T01:48:08;3.72;;;1.92;;
72791;SDS011;60907;53.268;8.764;2023-05-10T01:50:35;2.80;;;1.80;;
72791;SDS011;60907;53.268;8.764;2023-05-10T01:53:09;3.22;;;1.92;;
72791;SDS011;60907;53.268;8.764;2023-05-10T01:55:39;2.83;;;1.95;;
72791;SDS011;60907;53.268;8.764;2023-05-10T01:58:09;2.35;;;1.85;;
72791;SDS011;60907;53.268;8.764;2023-05-10T02:00:35;3.38;;;2.10;;
72791;SDS011;60907;53.268;8.764;2023-05-10T02:03:03;3.17;;;2.03;;
72791;SDS011;60907;53.268;8.764;2023-05-10T02:05:31;4.47;;;1.80;;
72791;SDS011;60907;53.268;8.764;2023-05-10T02:07:57;3.17;;;1.95;;
72791;SDS011;60907;53.268;8.764;2023-05-10T02:10:24;2.97;;;1.85;;
72791;SDS011;60907;53.268;8.764;2023-05-10T02:12:49;3.03;;;1.90;;
72791;SDS011;60907;53.268;8.764;2023-05-10T02:15:20;4.75;;;2.05;;
72791;SDS011;60907;53.268;8.764;2023-05-10T02:17:47;3.92;;;2.25;;
72791;SDS011;60907;53.268;8.764;2023-05-10T02:20:12;2.45;;;1.70;;
72791;SDS011;60907;53.268;8.764;2023-05-10T02:22:39;3.17;;;1.95;;
72791;SDS011;60907;53.268;8.764;2023-05-10T02:25:05;3.35;;;1.88;;
72791;SDS011;60907;53.268;8.764;2023-05-10T02:27:32;3.15;;;1.98;;
72791;SDS011;60907;53.268;8.764;2023-05-10T02:29:58;2.92;;;2.03;;
72791;SDS011;60907;53.268;8.764;2023-05-10T02:32:24;3.35;;;2.13;;
72791;SDS011;60907;53.268;8.764;2023-05-10T02:34:51;3.67;;;2.40;;
72791;SDS011;60907;53.268;8.764;2023-05-10T02:37:20;2.85;;;2.15;;
72791;SDS011;60907;53.268;8.764;2023-05-10T02:39:47;2.85;;;2.00;;
72791;SDS011;60907;53.268;8.764;2023-05-10T02:42:14;7.75;;;2.30;;
72791;SDS011;60907;53.268;8.764;2023-05-10T02:44:42;4.30;;;2.13;;
72791;SDS011;60907;53.268;8.764;2023-05-10T02:47:08;3.88;;;2.33;;
72791;SDS011;60907;53.268;8.764;2023-05-10T02:49:33;3.35;;;1.88;;
72791;SDS011;60907;53.268;8.764;2023-05-10T02:52:00;3.75;;;2.28;;
72791;SDS011;60907;53.268;8.764;2023-05-10T02:54:29;6.20;;;2.47;;
72791;SDS011;60907;53.268;8.764;2023-05-10T02:56:59;4.82;;;3.28;;
72791;SDS011;60907;53.268;8.764;2023-05-10T02:59:26;2.78;;;1.90;;
72791;SDS011;60907;53.268;8.764;2023-05-10T03:01:52;4.90;;;2.28;;
72791;SDS011;60907;53.268;8.764;2023-05-10T03:04:17;4.88;;;2.33;;
72791;SDS011;60907;53.268;8.764;2023-05-10T03:06:43;2.50;;;2.03;;
72791;SDS011;60907;53.268;8.764;2023-05-10T03:09:09;3.20;;;2.00;;
72791;SDS011;60907;53.268;8.764;2023-05-10T03:11:39;4.30;;;1.95;;
72791;SDS011;60907;53.268;8.764;2023-05-10T03:16:43;3.53;;;2.42;;
72791;SDS011;60907;53.268;8.764;2023-05-10T03:19:15;5.53;;;2.05;;
72791;SDS011;60907;53.268;8.764;2023-05-10T03:21:44;3.70;;;2.22;;
72791;SDS011;60907;53.268;8.764;2023-05-10T03:24:13;2.60;;;2.22;;
72791;SDS011;60907;53.268;8.764;2023-05-10T03:26:40;4.00;;;2.05;;
72791;SDS011;60907;53.268;8.764;2023-05-10T03:29:08;3.35;;;2.05;;
72791;SDS011;60907;53.268;8.764;2023-05-10T03:31:35;3.78;;;2.13;;
72791;SDS011;60907;53.268;8.764;2023-05-10T03:34:01;4.53;;;2.42;;
72791;SDS011;60907;53.268;8.764;2023-05-10T03:36:26;3.58;;;2.20;;
72791;SDS011;60907;53.268;8.764;2023-05-10T03:38:52;3.20;;;2.15;;
72791;SDS011;60907;53.268;8.764;2023-05-10T03:41:17;3.38;;;2.20;;
72791;SDS011;60907;53.268;8.764;2023-05-10T03:43:42;4.22;;;2.22;;
72791;SDS011;60907;53.268;8.764;2023-05-10T03:46:08;4.65;;;2.15;;
72791;SDS011;60907;53.268;8.764;2023-05-10T03:48:33;3.90;;;2.42;;
72791;SDS011;60907;53.268;8.764;2023-05-10T03:50:59;4.72;;;2.60;;
72791;SDS011;60907;53.268;8.764;2023-05-10T03:53:25;3.60;;;2.35;;
72791;SDS011;60907;53.268;8.764;2023-05-10T03:55:50;3.50;;;1.90;;
72791;SDS011;60907;53.268;8.764;2023-05-10T03:58:16;4.00;;;1.95;;
72791;SDS011;60907;53.268;8.764;2023-05-10T04:00:41;5.85;;;2.53;;
72791;SDS011;60907;53.268;8.764;2023-05-10T04:03:09;6.78;;;2.55;;
72791;SDS011;60907;53.268;8.764;2023-05-10T04:05:35;4.10;;;2.42;;
72791;SDS011;60907;53.268;8.764;2023-05-10T04:08:01;3.15;;;2.28;;
72791;SDS011;60907;53.268;8.764;2023-05-10T04:10:27;2.95;;;2.17;;
72791;SDS011;60907;53.268;8.764;2023-05-10T04:12:52;4.28;;;2.63;;
72791;SDS011;60907;53.268;8.764;2023-05-10T04:15:18;4.18;;;2.30;;
72791;SDS011;60907;53.268;8.764;2023-05-10T04:17:43;4.07;;;2.50;;
72791;SDS011;60907;53.268;8.764;2023-05-10T04:20:09;5.88;;;2.72;;
72791;SDS011;60907;53.268;8.764;2023-05-10T04:22:35;3.47;;;2.65;;
72791;SDS011;60907;53.268;8.764;2023-05-10T04:25:00;4.15;;;2.60;;
72791;SDS011;60907;53.268;8.764;2023-05-10T04:27:26;6.07;;;2.80;;
72791;SDS011;60907;53.268;8.764;2023-05-10T04:29:52;4.95;;;2.72;;
72791;SDS011;60907;53.268;8.764;2023-05-10T04:32:17;4.13;;;2.47;;
72791;SDS011;60907;53.268;8.764;2023-05-10T04:34:43;3.72;;;2.72;;
72791;SDS011;60907;53.268;8.764;2023-05-10T04:37:09;4.72;;;2.28;;
72791;SDS011;60907;53.268;8.764;2023-05-10T04:39:34;4.45;;;2.58;;
72791;SDS011;60907;53.268;8.764;2023-05-10T04:42:00;4.25;;;2.33;;
72791;SDS011;60907;53.268;8.764;2023-05-10T04:44:27;5.72;;;2.70;;
72791;SDS011;60907;53.268;8.764;2023-05-10T04:46:53;3.78;;;2.80;;
72791;SDS011;60907;53.268;8.764;2023-05-10T04:49:19;3.78;;;2.70;;
72791;SDS011;60907;53.268;8.764;2023-05-10T04:51:44;7.00;;;2.70;;
72791;SDS011;60907;53.268;8.764;2023-05-10T04:54:10;5.32;;;2.67;;
72791;SDS011;60907;53.268;8.764;2023-05-10T04:56:35;6.00;;;2.58;;
72791;SDS011;60907;53.268;8.764;2023-05-10T04:59:01;4.60;;;2.55;;
72791;SDS011;60907;53.268;8.764;2023-05-10T05:01:26;3.03;;;2.58;;
72791;SDS011;60907;53.268;8.764;2023-05-10T05:03:52;4.18;;;2.88;;
72791;SDS011;60907;53.268;8.764;2023-05-10T05:06:18;4.15;;;2.88;;
72791;SDS011;60907;53.268;8.764;2023-05-10T05:08:43;6.45;;;3.60;;
72791;SDS011;60907;53.268;8.764;2023-05-10T05:11:08;3.97;;;3.05;;
72791;SDS011;60907;53.268;8.764;2023-05-10T05:13:34;7.32;;;3.00;;
72791;SDS011;60907;53.268;8.764;2023-05-10T05:16:00;5.25;;;3.17;;
72791;SDS011;60907;53.268;8.764;2023-05-10T05:18:28;6.22;;;3.38;;
72791;SDS011;60907;53.268;8.764;2023-05-10T05:20:54;6.05;;;3.20;;
72791;SDS011;60907;53.268;8.764;2023-05-10T05:23:19;5.45;;;3.17;;
72791;SDS011;60907;53.268;8.764;2023-05-10T05:25:46;6.85;;;3.85;;
72791;SDS011;60907;53.268;8.764;2023-05-10T05:28:11;5.13;;;3.42;;
72791;SDS011;60907;53.268;8.764;2023-05-10T05:30:37;8.68;;;3.50;;
72791;SDS011;60907;53.268;8.764;2023-05-10T05:33:02;5.05;;;3.72;;
72791;SDS011;60907;53.268;8.764;2023-05-10T05:35:28;6.35;;;4.25;;
72791;SDS011;60907;53.268;8.764;2023-05-10T05:37:53;6.28;;;4.15;;
72791;SDS011;60907;53.268;8.764;2023-05-10T05:40:19;5.80;;;3.80;;
72791;SDS011;60907;53.268;8.764;2023-05-10T05:42:45;4.90;;;3.88;;
72791;SDS011;60907;53.268;8.764;2023-05-10T05:45:11;5.13;;;3.60;;
72791;SDS011;60907;53.268;8.764;2023-05-10T05:47:38;6.68;;;4.28;;
72791;SDS011;60907;53.268;8.764;2023-05-10T05:50:04;6.15;;;3.88;;
72791;SDS011;60907;53.268;8.764;2023-05-10T05:52:30;5.97;;;4.03;;
72791;SDS011;60907;53.268;8.764;2023-05-10T05:54:56;6.20;;;4.15;;
72791;SDS011;60907;53.268;8.764;2023-05-10T05:57:21;6.57;;;4.15;;
72791;SDS011;60907;53.268;8.764;2023-05-10T05:59:46;6.78;;;4.10;;
72791;SDS011;60907;53.268;8.764;2023-05-10T06:02:12;7.03;;;4.72;;
72791;SDS011;60907;53.268;8.764;2023-05-10T06:04:37;7.47;;;4.90;;
72791;SDS011;60907;53.268;8.764;2023-05-10T06:07:03;8.52;;;4.82;;
72791;SDS011;60907;53.268;8.764;2023-05-10T06:09:29;9.52;;;5.00;;
72791;SDS011;60907;53.268;8.764;2023-05-10T06:11:54;8.40;;;4.75;;
72791;SDS011;60907;53.268;8.764;2023-05-10T06:14:20;7.63;;;4.70;;
72791;SDS011;60907;53.268;8.764;2023-05-10T06:16:45;6.88;;;4.47;;
72791;SDS011;60907;53.268;8.764;2023-05-10T06:19:11;7.40;;;4.50;;
72791;SDS011;60907;53.268;8.764;2023-05-10T06:21:36;7.50;;;4.55;;
72791;SDS011;60907;53.268;8.764;2023-05-10T06:24:02;8.10;;;4.40;;
72791;SDS011;60907;53.268;8.764;2023-05-10T06:26:28;6.22;;;4.68;;
72791;SDS011;60907;53.268;8.764;2023-05-10T06:28:53;9.10;;;5.00;;
72791;SDS011;60907;53.268;8.764;2023-05-10T06:31:18;8.23;;;4.30;;
72791;SDS011;60907;53.268;8.764;2023-05-10T06:33:44;7.07;;;4.65;;
72791;SDS011;60907;53.268;8.764;2023-05-10T06:36:09;6.97;;;4.60;;
72791;SDS011;60907;53.268;8.764;2023-05-10T06:38:35;9.02;;;4.85;;
72791;SDS011;60907;53.268;8.764;2023-05-10T06:41:01;11.10;;;5.65;;
72791;SDS011;60907;53.268;8.764;2023-05-10T06:43:26;9.35;;;5.63;;
72791;SDS011;60907;53.268;8.764;2023-05-10T06:45:53;7.30;;;4.80;;
72791;SDS011;60907;53.268;8.764;2023-05-10T06:48:19;7.28;;;5.05;;
72791;SDS011;60907;53.268;8.764;2023-05-10T06:50:44;8.13;;;4.85;;
72791;SDS011;60907;53.268;8.764;2023-05-10T06:53:09;7.72;;;5.13;;
72791;SDS011;60907;53.268;8.764;2023-05-10T06:55:35;7.30;;;5.00;;
72791;SDS011;60907;53.268;8.764;2023-05-10T06:58:00;8.95;;;5.53;;
72791;SDS011;60907;53.268;8.764;2023-05-10T07:00:27;10.65;;;5.68;;
72791;SDS011;60907;53.268;8.764;2023-05-10T07:02:52;8.32;;;5.45;;
72791;SDS011;60907;53.268;8.764;2023-05-10T07:05:18;8.45;;;6.00;;
72791;SDS011;60907;53.268;8.764;2023-05-10T07:07:43;10.73;;;5.50;;
72791;SDS011;60907;53.268;8.764;2023-05-10T07:10:09;9.13;;;5.43;;
72791;SDS011;60907;53.268;8.764;2023-05-10T07:12:34;11.80;;;6.05;;
72791;SDS011;60907;53.268;8.764;2023-05-10T07:15:00;11.68;;;6.70;;
72791;SDS011;60907;53.268;8.764;2023-05-10T07:17:25;10.90;;;6.25;;
72791;SDS011;60907;53.268;8.764;2023-05-10T07:19:51;11.80;;;6.07;;
72791;SDS011;60907;53.268;8.764;2023-05-10T07:22:16;10.73;;;7.07;;
72791;SDS011;60907;53.268;8.764;2023-05-10T07:24:42;12.18;;;6.35;;
72791;SDS011;60907;53.268;8.764;2023-05-10T07:27:08;12.55;;;6.57;;
72791;SDS011;60907;53.268;8.764;2023-05-10T07:29:34;9.63;;;5.93;;
72791;SDS011;60907;53.268;8.764;2023-05-10T07:31:59;12.35;;;6.85;;
72791;SDS011;60907;53.268;8.764;2023-05-10T07:34:25;12.10;;;5.93;;
72791;SDS011;60907;53.268;8.764;2023-05-10T07:36:51;12.30;;;7.05;;
72791;SDS011;60907;53.268;8.764;2023-05-10T07:39:17;11.02;;;6.47;;
72791;SDS011;60907;53.268;8.764;2023-05-10T07:41:42;11.25;;;6.90;;
72791;SDS011;60907;53.268;8.764;2023-05-10T07:44:08;11.70;;;6.30;;
72791;SDS011;60907;53.268;8.764;2023-05-10T07:46:33;9.88;;;6.40;;
72791;SDS011;60907;53.268;8.764;2023-05-10T07:48:59;11.07;;;6.15;;
72791;SDS011;60907;53.268;8.764;2023-05-10T07:51:24;11.38;;;6.97;;
72791;SDS011;60907;53.268;8.764;2023-05-10T07:53:49;10.93;;;7.03;;
72791;SDS011;60907;53.268;8.764;2023-05-10T07:56:25;11.23;;;6.63;;
72791;SDS011;60907;53.268;8.764;2023-05-10T07:58:54;10.27;;;6.82;;
72791;SDS011;60907;53.268;8.764;2023-05-10T08:01:30;10.60;;;6.75;;
72791;SDS011;60907;53.268;8.764;2023-05-10T08:03:59;12.65;;;6.85;;
72791;SDS011;60907;53.268;8.764;2023-05-10T08:06:25;12.13;;;7.20;;
72791;SDS011;60907;53.268;8.764;2023-05-10T08:08:54;10.32;;;6.85;;
72791;SDS011;60907;53.268;8.764;2023-05-10T08:11:20;11.63;;;6.60;;
72791;SDS011;60907;53.268;8.764;2023-05-10T08:13:48;9.80;;;6.15;;
72791;SDS011;60907;53.268;8.764;2023-05-10T08:16:14;11.88;;;6.80;;
72791;SDS011;60907;53.268;8.764;2023-05-10T08:18:40;10.75;;;5.40;;
72791;SDS011;60907;53.268;8.764;2023-05-10T08:21:06;8.18;;;4.03;;
72791;SDS011;60907;53.268;8.764;2023-05-10T08:23:31;8.73;;;4.70;;
72791;SDS011;60907;53.268;8.764;2023-05-10T08:25:57;7.43;;;4.68;;
72791;SDS011;60907;53.268;8.764;2023-05-10T08:28:23;4.78;;;3.35;;
72791;SDS011;60907;53.268;8.764;2023-05-10T08:30:49;5.60;;;3.75;;
72791;SDS011;60907;53.268;8.764;2023-05-10T08:33:15;7.90;;;3.80;;
72791;SDS011;60907;53.268;8.764;2023-05-10T08:35:40;4.57;;;3.10;;
72791;SDS011;60907;53.268;8.764;2023-05-10T08:38:06;3.95;;;2.45;;
72791;SDS011;60907;53.268;8.764;2023-05-10T08:40:32;5.50;;;2.75;;
72791;SDS011;60907;53.268;8.764;2023-05-10T08:43:05;4.80;;;3.10;;
72791;SDS011;60907;53.268;8.764;2023-05-10T08:45:32;5.32;;;3.78;;
72791;SDS011;60907;53.268;8.764;2023-05-10T08:48:01;4.13;;;2.65;;
72791;SDS011;60907;53.268;8.764;2023-05-10T08:50:27;5.18;;;2.97;;
72791;SDS011;60907;53.268;8.764;2023-05-10T08:52:53;4.13;;;2.88;;
72791;SDS011;60907;53.268;8.764;2023-05-10T08:55:21;5.88;;;3.63;;
72791;SDS011;60907;53.268;8.764;2023-05-10T08:57:48;4.68;;;3.08;;
72791;SDS011;60907;53.268;8.764;2023-05-10T09:00:14;5.68;;;3.72;;
72791;SDS011;60907;53.268;8.764;2023-05-10T09:02:40;6.45;;;2.92;;
72791;SDS011;60907;53.268;8.764;2023-05-10T09:05:07;5.63;;;3.40;;
72791;SDS011;60907;53.268;8.764;2023-05-10T09:07:33;4.70;;;3.08;;
72791;SDS011;60907;53.268;8.764;2023-05-10T09:09:59;5.72;;;3.50;;
72791;SDS011;60907;53.268;8.764;2023-05-10T09:12:25;6.72;;;3.15;;
72791;SDS011;60907;53.268;8.764;2023-05-10T09:14:50;5.72;;;2.85;;
72791;SDS011;60907;53.268;8.764;2023-05-10T09:17:17;3.25;;;2.33;;
72791;SDS011;60907;53.268;8.764;2023-05-10T09:19:44;5.97;;;3.30;;
72791;SDS011;60907;53.268;8.764;2023-05-10T09:24:35;3.97;;;2.60;;
72791;SDS011;60907;53.268;8.764;2023-05-10T09:27:01;3.50;;;2.50;;
72791;SDS011;60907;53.268;8.764;2023-05-10T09:29:38;4.97;;;2.22;;
72791;SDS011;60907;53.268;8.764;2023-05-10T09:32:07;3.88;;;2.30;;
72791;SDS011;60907;53.268;8.764;2023-05-10T09:34:32;3.20;;;2.00;;
72791;SDS011;60907;53.268;8.764;2023-05-10T09:39:33;3.50;;;1.90;;
72791;SDS011;60907;53.268;8.764;2023-05-10T09:42:00;3.95;;;2.10;;
72791;SDS011;60907;53.268;8.764;2023-05-10T09:44:28;4.55;;;2.35;;
72791;SDS011;60907;53.268;8.764;2023-05-10T09:46:54;4.10;;;2.38;;
72791;SDS011;60907;53.268;8.764;2023-05-10T09:49:20;4.13;;;2.53;;
72791;SDS011;60907;53.268;8.764;2023-05-10T09:51:46;3.22;;;2.10;;
72791;SDS011;60907;53.268;8.764;2023-05-10T09:54:13;3.88;;;2.15;;
72791;SDS011;60907;53.268;8.764;2023-05-10T09:56:39;3.08;;;1.88;;
72791;SDS011;60907;53.268;8.764;2023-05-10T09:59:06;4.07;;;2.00;;
72791;SDS011;60907;53.268;8.764;2023-05-10T10:01:34;3.28;;;1.83;;
72791;SDS011;60907;53.268;8.764;2023-05-10T10:04:02;2.58;;;1.58;;
72791;SDS011;60907;53.268;8.764;2023-05-10T10:06:35;3.13;;;1.60;;
72791;SDS011;60907;53.268;8.764;2023-05-10T10:09:01;3.17;;;1.95;;
72791;SDS011;60907;53.268;8.764;2023-05-10T10:11:27;2.72;;;1.60;;
72791;SDS011;60907;53.268;8.764;2023-05-10T10:13:53;3.47;;;1.70;;
72791;SDS011;60907;53.268;8.764;2023-05-10T10:16:18;3.85;;;1.73;;
72791;SDS011;60907;53.268;8.764;2023-05-10T10:18:45;2.53;;;1.48;;
72791;SDS011;60907;53.268;8.764;2023-05-10T10:21:10;2.28;;;1.60;;
72791;SDS011;60907;53.268;8.764;2023-05-10T10:23:36;2.80;;;1.75;;
72791;SDS011;60907;53.268;8.764;2023-05-10T10:26:04;2.70;;;1.58;;
72791;SDS011;60907;53.268;8.764;2023-05-10T10:28:39;2.95;;;1.70;;
72791;SDS011;60907;53.268;8.764;2023-05-10T10:34:06;2.17;;;1.13;;
72791;SDS011;60907;53.268;8.764;2023-05-10T10:36:32;2.55;;;1.65;;
72791;SDS011;60907;53.268;8.764;2023-05-10T10:39:09;3.08;;;1.67;;
72791;SDS011;60907;53.268;8.764;2023-05-10T10:41:36;3.17;;;1.73;;
72791;SDS011;60907;53.268;8.764;2023-05-10T10:44:25;2.80;;;1.95;;
72791;SDS011;60907;53.268;8.764;2023-05-10T10:47:02;3.97;;;2.28;;
72791;SDS011;60907;53.268;8.764;2023-05-10T10:55:30;15.45;;;2.00;;
72791;SDS011;60907;53.268;8.764;2023-05-10T10:57:46;2.90;;;1.75;;
72791;SDS011;60907;53.268;8.764;2023-05-10T11:00:28;3.22;;;1.77;;
72791;SDS011;60907;53.268;8.764;2023-05-10T11:05:25;3.28;;;1.85;;
72791;SDS011;60907;53.268;8.764;2023-05-10T11:07:53;4.22;;;1.80;;
72791;SDS011;60907;53.268;8.764;2023-05-10T11:10:22;3.47;;;1.83;;
72791;SDS011;60907;53.268;8.764;2023-05-10T11:15:38;2.63;;;1.42;;
72791;SDS011;60907;53.268;8.764;2023-05-10T11:18:17;2.85;;;1.48;;
72791;SDS011;60907;53.268;8.764;2023-05-10T11:20:43;4.93;;;1.63;;
72791;SDS011;60907;53.268;8.764;2023-05-10T11:23:12;2.80;;;1.30;;
72791;SDS011;60907;53.268;8.764;2023-05-10T11:25:43;3.28;;;1.38;;
72791;SDS011;60907;53.268;8.764;2023-05-10T11:28:13;2.78;;;1.88;;
72791;SDS011;60907;53.268;8.764;2023-05-10T11:30:39;4.43;;;2.00;;
72791;SDS011;60907;53.268;8.764;2023-05-10T11:33:06;4.00;;;1.98;;
72791;SDS011;60907;53.268;8.764;2023-05-10T11:35:36;3.55;;;1.98;;
72791;SDS011;60907;53.268;8.764;2023-05-10T11:38:08;2.70;;;1.52;;
72791;SDS011;60907;53.268;8.764;2023-05-10T11:40:37;3.05;;;1.73;;
72791;SDS011;60907;53.268;8.764;2023-05-10T11:43:03;3.10;;;1.90;;
72791;SDS011;60907;53.268;8.764;2023-05-10T11:45:31;2.25;;;1.58;;
72791;SDS011;60907;53.268;8.764;2023-05-10T11:47:57;3.03;;;1.92;;
72791;SDS011;60907;53.268;8.764;2023-05-10T11:50:24;2.95;;;1.85;;
72791;SDS011;60907;53.268;8.764;2023-05-10T11:52:56;3.13;;;2.05;;
72791;SDS011;60907;53.268;8.764;2023-05-10T11:55:23;2.83;;;1.65;;
72791;SDS011;60907;53.268;8.764;2023-05-10T11:57:55;2.00;;;1.30;;
72791;SDS011;60907;53.268;8.764;2023-05-10T12:00:25;2.70;;;1.63;;
72791;SDS011;60907;53.268;8.764;2023-05-10T12:02:51;2.72;;;1.25;;
72791;SDS011;60907;53.268;8.764;2023-05-10T12:05:32;2.05;;;1.25;;
72791;SDS011;60907;53.268;8.764;2023-05-10T12:08:10;2.30;;;1.35;;
72791;SDS011;60907;53.268;8.764;2023-05-10T12:10:41;3.05;;;1.48;;
72791;SDS011;60907;53.268;8.764;2023-05-10T12:13:13;2.20;;;1.50;;
72791;SDS011;60907;53.268;8.764;2023-05-10T12:18:05;2.67;;;0.90;;
72791;SDS011;60907;53.268;8.764;2023-05-10T12:20:31;1.75;;;0.95;;
72791;SDS011;60907;53.268;8.764;2023-05-10T12:22:57;1.10;;;0.65;;
72791;SDS011;60907;53.268;8.764;2023-05-10T12:25:24;1.10;;;0.45;;
72791;SDS011;60907;53.268;8.764;2023-05-10T12:27:56;0.60;;;0.45;;
72791;SDS011;60907;53.268;8.764;2023-05-10T12:30:26;0.70;;;0.50;;
72791;SDS011;60907;53.268;8.764;2023-05-10T12:32:53;0.95;;;0.82;;
72791;SDS011;60907;53.268;8.764;2023-05-10T12:35:18;1.23;;;0.90;;
72791;SDS011;60907;53.268;8.764;2023-05-10T12:37:49;1.02;;;0.82;;
72791;SDS011;60907;53.268;8.764;2023-05-10T12:40:15;1.20;;;0.80;;
72791;SDS011;60907;53.268;8.764;2023-05-10T12:42:41;0.80;;;0.70;;
72791;SDS011;60907;53.268;8.764;2023-05-10T12:45:07;1.00;;;0.82;;
72791;SDS011;60907;53.268;8.764;2023-05-10T12:47:33;1.80;;;0.80;;
72791;SDS011;60907;53.268;8.764;2023-05-10T12:49:59;1.10;;;0.60;;
72791;SDS011;60907;53.268;8.764;2023-05-10T12:52:25;1.48;;;0.77;;
72791;SDS011;60907;53.268;8.764;2023-05-10T12:54:52;1.63;;;0.73;;
72791;SDS011;60907;53.268;8.764;2023-05-10T12:57:18;0.82;;;0.82;;
72791;SDS011;60907;53.268;8.764;2023-05-10T12:59:43;1.40;;;1.00;;
72791;SDS011;60907;53.268;8.764;2023-05-10T13:02:09;0.63;;;0.63;;
72791;SDS011;60907;53.268;8.764;2023-05-10T13:04:35;0.60;;;0.45;;
72791;SDS011;60907;53.268;8.764;2023-05-10T13:07:04;0.80;;;0.70;;
72791;SDS011;60907;53.268;8.764;2023-05-10T13:09:30;1.10;;;1.00;;
72791;SDS011;60907;53.268;8.764;2023-05-10T13:11:55;1.13;;;1.00;;
72791;SDS011;60907;53.268;8.764;2023-05-10T13:14:21;1.08;;;0.85;;
72791;SDS011;60907;53.268;8.764;2023-05-10T13:16:47;1.60;;;0.98;;
72791;SDS011;60907;53.268;8.764;2023-05-10T13:19:13;1.67;;;1.05;;
72791;SDS011;60907;53.268;8.764;2023-05-10T13:21:39;1.33;;;1.23;;
72791;SDS011;60907;53.268;8.764;2023-05-10T13:24:07;1.02;;;0.85;;
72791;SDS011;60907;53.268;8.764;2023-05-10T13:26:33;1.48;;;0.93;;
72791;SDS011;60907;53.268;8.764;2023-05-10T13:28:59;1.02;;;0.70;;
72791;SDS011;60907;53.268;8.764;2023-05-10T13:31:24;1.15;;;0.95;;
72791;SDS011;60907;53.268;8.764;2023-05-10T13:33:50;1.40;;;0.93;;
72791;SDS011;60907;53.268;8.764;2023-05-10T13:36:15;1.40;;;0.93;;
72791;SDS011;60907;53.268;8.764;2023-05-10T13:38:41;2.03;;;1.35;;
72791;SDS011;60907;53.268;8.764;2023-05-10T13:41:06;1.65;;;1.10;;
72791;SDS011;60907;53.268;8.764;2023-05-10T13:43:31;2.03;;;1.27;;
72791;SDS011;60907;53.268;8.764;2023-05-10T13:45:57;1.63;;;1.35;;
72791;SDS011;60907;53.268;8.764;2023-05-10T13:48:22;2.28;;;1.30;;
72791;SDS011;60907;53.268;8.764;2023-05-10T13:50:48;2.38;;;1.45;;
72791;SDS011;60907;53.268;8.764;2023-05-10T13:53:13;2.25;;;1.50;;
72791;SDS011;60907;53.268;8.764;2023-05-10T13:55:39;3.30;;;1.65;;
72791;SDS011;60907;53.268;8.764;2023-05-10T13:58:05;3.25;;;1.63;;
72791;SDS011;60907;53.268;8.764;2023-05-10T14:00:30;2.90;;;2.03;;
72791;SDS011;60907;53.268;8.764;2023-05-10T14:02:56;4.03;;;1.90;;
72791;SDS011;60907;53.268;8.764;2023-05-10T14:05:21;3.28;;;2.10;;
72791;SDS011;60907;53.268;8.764;2023-05-10T14:07:48;3.53;;;1.95;;
72791;SDS011;60907;53.268;8.764;2023-05-10T14:10:13;4.63;;;2.15;;
72791;SDS011;60907;53.268;8.764;2023-05-10T14:12:39;4.22;;;2.80;;
72791;SDS011;60907;53.268;8.764;2023-05-10T14:15:04;4.55;;;2.30;;
72791;SDS011;60907;53.268;8.764;2023-05-10T14:17:31;3.90;;;2.58;;
72791;SDS011;60907;53.268;8.764;2023-05-10T14:19:57;4.40;;;2.65;;
72791;SDS011;60907;53.268;8.764;2023-05-10T14:22:22;4.75;;;3.00;;
72791;SDS011;60907;53.268;8.764;2023-05-10T14:24:48;4.50;;;3.03;;
72791;SDS011;60907;53.268;8.764;2023-05-10T14:27:13;3.75;;;2.67;;
72791;SDS011;60907;53.268;8.764;2023-05-10T14:29:40;4.82;;;3.45;;
72791;SDS011;60907;53.268;8.764;2023-05-10T14:32:05;4.10;;;2.50;;
72791;SDS011;60907;53.268;8.764;2023-05-10T14:34:30;4.10;;;2.65;;
72791;SDS011;60907;53.268;8.764;2023-05-10T14:36:56;5.53;;;2.45;;
72791;SDS011;60907;53.268;8.764;2023-05-10T14:39:21;4.22;;;2.38;;
72791;SDS011;60907;53.268;8.764;2023-05-10T14:41:48;3.60;;;2.47;;
72791;SDS011;60907;53.268;8.764;2023-05-10T14:44:13;5.82;;;2.97;;
72791;SDS011;60907;53.268;8.764;2023-05-10T14:46:40;4.65;;;1.92;;
72791;SDS011;60907;53.268;8.764;2023-05-10T14:49:06;2.47;;;1.42;;
72791;SDS011;60907;53.268;8.764;2023-05-10T14:51:32;3.17;;;1.38;;
72791;SDS011;60907;53.268;8.764;2023-05-10T14:53:57;1.63;;;1.02;;
72791;SDS011;60907;53.268;8.764;2023-05-10T14:56:23;1.30;;;0.95;;
72791;SDS011;60907;53.268;8.764;2023-05-10T15:01:16;1.27;;;0.90;;
72791;SDS011;60907;53.268;8.764;2023-05-10T15:03:41;0.77;;;0.63;;
72791;SDS011;60907;53.268;8.764;2023-05-10T15:06:07;0.90;;;0.73;;
72791;SDS011;60907;53.268;8.764;2023-05-10T15:08:33;1.00;;;0.82;;
72791;SDS011;60907;53.268;8.764;2023-05-10T15:10:58;1.98;;;1.02;;
72791;SDS011;60907;53.268;8.764;2023-05-10T15:13:24;2.40;;;1.60;;
72791;SDS011;60907;53.268;8.764;2023-05-10T15:15:49;2.50;;;1.23;;
72791;SDS011;60907;53.268;8.764;2023-05-10T15:18:15;1.70;;;1.45;;
72791;SDS011;60907;53.268;8.764;2023-05-10T15:20:40;2.67;;;1.40;;